createdAt,value
2023-03-27T00:01:17.931Z,1.80
2023-03-27T00:03:49.271Z,2.00
2023-03-27T00:06:17.755Z,1.73
2023-03-27T00:08:46.382Z,2.10
2023-03-27T00:11:13.629Z,1.73
2023-03-27T00:13:48.938Z,1.70
2023-03-27T00:16:16.799Z,2.13
2023-03-27T00:18:44.924Z,2.27
2023-03-27T00:21:11.658Z,2.67
2023-03-27T00:23:38.465Z,2.87
2023-03-27T00:26:05.455Z,2.80
2023-03-27T00:28:32.343Z,2.90
2023-03-27T00:30:59.370Z,2.97
2023-03-27T00:33:26.827Z,2.67
2023-03-27T00:35:53.540Z,3.03
2023-03-27T00:38:21.074Z,2.80
2023-03-27T00:40:50.584Z,2.70
2023-03-27T00:43:35.411Z,2.53
2023-03-27T00:46:08.522Z,2.43
2023-03-27T00:48:37.598Z,2.13
2023-03-27T00:51:05.912Z,1.80
2023-03-27T00:53:33.546Z,1.80
2023-03-27T00:56:03.616Z,1.90
2023-03-27T00:58:41.274Z,1.60
2023-03-27T01:01:09.787Z,1.50
2023-03-27T01:03:36.530Z,1.57
2023-03-27T01:06:04.349Z,1.50
2023-03-27T01:08:33.683Z,1.40
2023-03-27T01:11:36.852Z,1.23
2023-03-27T01:14:27.303Z,1.20
2023-03-27T01:17:16.688Z,1.40
2023-03-27T01:20:13.945Z,1.67
2023-03-27T01:22:55.898Z,1.60
2023-03-27T01:25:41.965Z,1.70
2023-03-27T01:28:36.821Z,1.60
2023-03-27T01:31:21.099Z,2.00
2023-03-27T01:33:53.504Z,1.63
2023-03-27T01:36:26.018Z,1.60
2023-03-27T01:39:10.948Z,1.70
2023-03-27T01:41:49.366Z,2.40
2023-03-27T01:44:26.777Z,2.00
2023-03-27T01:47:17.711Z,1.50
2023-03-27T01:50:19.346Z,1.80
2023-03-27T01:52:55.410Z,1.98
2023-03-27T01:55:25.523Z,1.80
2023-03-27T01:58:00.625Z,1.83
2023-03-27T02:00:51.921Z,1.80
2023-03-27T02:03:20.658Z,2.63
2023-03-27T02:05:59.324Z,3.80
2023-03-27T02:08:47.032Z,3.67
2023-03-27T02:11:14.115Z,4.63
2023-03-27T02:13:51.411Z,4.33
2023-03-27T02:16:23.151Z,5.27
2023-03-27T02:18:58.115Z,4.90
2023-03-27T02:21:25.016Z,5.88
2023-03-27T02:23:52.962Z,5.80
2023-03-27T02:26:19.680Z,6.30
2023-03-27T02:28:55.433Z,5.90
2023-03-27T02:31:36.142Z,6.55
2023-03-27T02:34:39.183Z,5.90
2023-03-27T02:37:25.128Z,5.83
2023-03-27T02:40:17.823Z,5.93
2023-03-27T02:42:57.612Z,6.47
2023-03-27T02:45:47.463Z,5.87
2023-03-27T02:48:24.194Z,5.83
2023-03-27T02:50:54.608Z,6.73
2023-03-27T02:53:25.079Z,5.63
2023-03-27T02:55:58.761Z,5.90
2023-03-27T02:58:39.775Z,6.83
2023-03-27T03:01:09.531Z,6.33
2023-03-27T03:03:41.864Z,5.67
2023-03-27T03:06:10.974Z,7.10
2023-03-27T03:08:38.714Z,5.90
2023-03-27T03:11:10.211Z,6.07
2023-03-27T03:13:37.305Z,6.43
2023-03-27T03:16:04.454Z,5.73
2023-03-27T03:18:31.020Z,6.87
2023-03-27T03:20:57.789Z,7.37
2023-03-27T03:23:24.584Z,7.73
2023-03-27T03:25:52.622Z,5.70
2023-03-27T03:28:19.320Z,6.37
2023-03-27T03:30:50.610Z,5.57
2023-03-27T03:33:18.203Z,7.30
2023-03-27T03:35:47.136Z,5.33
2023-03-27T03:38:15.840Z,5.70
2023-03-27T03:40:42.369Z,5.53
2023-03-27T03:43:08.921Z,4.63
2023-03-27T03:45:35.609Z,4.85
2023-03-27T03:48:02.222Z,4.03
2023-03-27T03:50:28.863Z,3.77
2023-03-27T03:52:55.449Z,3.97
2023-03-27T03:55:21.967Z,4.33
2023-03-27T03:57:48.576Z,3.50
2023-03-27T04:00:16.763Z,5.43
2023-03-27T04:02:43.650Z,4.83
2023-03-27T04:05:11.025Z,4.20
2023-03-27T04:07:39.780Z,4.10
2023-03-27T04:10:07.638Z,3.90
2023-03-27T04:12:34.289Z,4.07
2023-03-27T04:15:00.877Z,3.70
2023-03-27T04:17:27.512Z,3.37
2023-03-27T04:19:54.152Z,3.92
2023-03-27T04:22:22.783Z,4.10
2023-03-27T04:24:50.478Z,3.63
2023-03-27T04:27:17.901Z,3.30
2023-03-27T04:29:47.206Z,3.00
2023-03-27T04:32:18.902Z,3.73
2023-03-27T04:34:46.667Z,4.00
2023-03-27T04:37:13.595Z,3.57
2023-03-27T04:39:42.677Z,2.73
2023-03-27T04:42:10.526Z,2.77
2023-03-27T04:44:37.672Z,3.40
2023-03-27T04:47:08.724Z,3.13
2023-03-27T04:49:40.414Z,2.83
2023-03-27T04:52:07.163Z,2.87
2023-03-27T04:54:34.595Z,3.15
2023-03-27T04:57:03.115Z,3.37
2023-03-27T04:59:31.819Z,3.17
2023-03-27T05:01:59.989Z,3.00
2023-03-27T05:04:27.581Z,3.60
2023-03-27T05:06:55.525Z,2.10
2023-03-27T05:09:23.167Z,2.57
2023-03-27T05:11:50.516Z,3.13
2023-03-27T05:14:22.200Z,2.63
2023-03-27T05:16:50.503Z,2.20
2023-03-27T05:19:19.299Z,2.63
2023-03-27T05:21:47.096Z,2.70
2023-03-27T05:24:15.309Z,2.53
2023-03-27T05:26:43.234Z,2.70
2023-03-27T05:29:10.180Z,2.60
2023-03-27T05:31:37.307Z,2.63
2023-03-27T05:34:05.585Z,2.92
2023-03-27T05:36:32.503Z,2.30
2023-03-27T05:38:59.055Z,2.77
2023-03-27T05:41:25.719Z,2.23
2023-03-27T05:43:52.350Z,2.90
2023-03-27T05:46:21.264Z,2.57
2023-03-27T05:48:48.778Z,2.83
2023-03-27T05:51:15.596Z,3.50
2023-03-27T05:53:42.226Z,2.53
2023-03-27T05:56:10.411Z,2.40
2023-03-27T05:58:37.043Z,2.83
2023-03-27T06:01:04.267Z,2.00
2023-03-27T06:03:31.008Z,3.00
2023-03-27T06:06:00.879Z,2.57
2023-03-27T06:08:29.389Z,2.67
2023-03-27T06:10:56.030Z,3.00
2023-03-27T06:13:24.119Z,3.17
2023-03-27T06:15:54.089Z,2.90
2023-03-27T06:18:20.931Z,2.93
2023-03-27T06:20:47.451Z,3.03
2023-03-27T06:23:14.378Z,2.30
2023-03-27T06:25:41.185Z,2.70
2023-03-27T06:28:09.114Z,2.60
2023-03-27T06:30:38.201Z,2.27
2023-03-27T06:33:06.110Z,2.30
2023-03-27T06:35:33.549Z,2.87
2023-03-27T06:38:03.374Z,2.70
2023-03-27T06:40:31.373Z,2.70
2023-03-27T06:43:03.911Z,2.63
2023-03-27T06:45:33.267Z,2.50
2023-03-27T06:48:15.316Z,2.70
2023-03-27T06:50:47.912Z,2.57
2023-03-27T06:53:26.535Z,2.53
2023-03-27T06:55:53.993Z,2.70
2023-03-27T06:58:21.672Z,3.30
2023-03-27T07:00:49.633Z,2.80
2023-03-27T07:03:17.894Z,2.93
2023-03-27T07:05:45.596Z,2.70
2023-03-27T07:10:56.415Z,3.23
2023-03-27T07:13:34.330Z,2.80
2023-03-27T07:16:00.929Z,2.57
2023-03-27T07:18:27.667Z,3.03
2023-03-27T07:20:54.374Z,2.77
2023-03-27T07:23:21.300Z,3.03
2023-03-27T07:25:49.923Z,3.35
2023-03-27T07:28:18.235Z,2.90
2023-03-27T07:30:44.881Z,2.43
2023-03-27T07:33:12.437Z,3.20
2023-03-27T07:35:46.809Z,2.30
2023-03-27T07:38:14.313Z,3.30
2023-03-27T07:40:43.230Z,3.40
2023-03-27T07:43:09.862Z,2.97
2023-03-27T07:45:36.799Z,2.83
2023-03-27T07:48:11.448Z,2.60
2023-03-27T07:50:38.940Z,2.77
2023-03-27T07:53:08.557Z,2.63
2023-03-27T07:55:37.621Z,2.80
2023-03-27T07:58:06.869Z,2.40
2023-03-27T08:00:35.385Z,3.70
2023-03-27T08:03:10.095Z,2.40
2023-03-27T08:05:37.373Z,3.07
2023-03-27T08:08:04.944Z,3.00
2023-03-27T08:10:31.601Z,3.07
2023-03-27T08:12:58.168Z,3.30
2023-03-27T08:15:25.482Z,2.30
2023-03-27T08:17:54.923Z,2.30
2023-03-27T08:20:23.302Z,2.13
2023-03-27T08:22:53.262Z,2.33
2023-03-27T08:25:22.659Z,2.50
2023-03-27T08:27:50.465Z,2.60
2023-03-27T08:30:17.654Z,2.67
2023-03-27T08:32:44.993Z,2.23
2023-03-27T08:35:12.132Z,2.10
2023-03-27T08:37:39.008Z,2.80
2023-03-27T08:40:12.493Z,2.23
2023-03-27T08:42:42.502Z,2.40
2023-03-27T08:45:17.746Z,2.30
2023-03-27T08:47:54.847Z,2.07
2023-03-27T08:50:31.283Z,2.20
2023-03-27T08:52:59.286Z,2.10
2023-03-27T08:55:40.682Z,2.63
2023-03-27T08:58:19.932Z,2.80
2023-03-27T09:00:55.404Z,1.83
2023-03-27T09:03:32.663Z,2.17
2023-03-27T09:06:14.485Z,2.17
2023-03-27T09:09:02.409Z,2.20
2023-03-27T09:11:39.953Z,2.07
2023-03-27T09:14:29.455Z,2.23
2023-03-27T09:16:59.812Z,2.00
2023-03-27T09:19:37.452Z,2.40
2023-03-27T09:22:16.021Z,2.90
2023-03-27T09:24:47.030Z,2.13
2023-03-27T09:27:24.888Z,1.80
2023-03-27T09:30:15.122Z,2.63
2023-03-27T09:32:43.469Z,2.80
2023-03-27T09:35:14.277Z,2.87
2023-03-27T09:37:42.666Z,2.70
2023-03-27T09:40:23.349Z,3.90
2023-03-27T09:42:53.294Z,2.23
2023-03-27T09:45:21.626Z,2.13
2023-03-27T09:47:59.936Z,2.60
2023-03-27T09:50:44.419Z,2.23
2023-03-27T09:53:18.866Z,2.13
2023-03-27T09:55:52.811Z,2.50
2023-03-27T09:58:30.539Z,2.87
2023-03-27T10:01:07.377Z,2.23
2023-03-27T10:03:51.908Z,2.47
2023-03-27T10:06:38.517Z,2.27
2023-03-27T10:09:27.332Z,2.10
2023-03-27T10:12:20.610Z,2.50
2023-03-27T10:14:52.270Z,1.93
2023-03-27T10:17:34.157Z,2.17
2023-03-27T10:20:16.026Z,3.13
2023-03-27T10:22:52.014Z,2.37
2023-03-27T10:25:31.969Z,2.53
2023-03-27T10:28:07.928Z,2.10
2023-03-27T10:30:37.863Z,2.30
2023-03-27T10:33:04.499Z,2.20
2023-03-27T10:35:37.850Z,2.13
2023-03-27T10:38:14.056Z,2.17
2023-03-27T10:40:43.050Z,1.90
2023-03-27T10:43:12.989Z,2.40
2023-03-27T10:45:53.667Z,1.97
2023-03-27T10:48:33.574Z,2.30
2023-03-27T10:51:06.423Z,2.13
2023-03-27T10:53:43.311Z,2.37
2023-03-27T10:56:23.674Z,2.67
2023-03-27T10:58:56.068Z,1.80
2023-03-27T11:01:34.738Z,2.63
2023-03-27T11:04:31.424Z,1.83
2023-03-27T11:07:00.771Z,2.25
2023-03-27T11:09:32.211Z,1.93
2023-03-27T11:12:07.157Z,2.20
2023-03-27T11:14:56.297Z,1.90
2023-03-27T11:17:29.644Z,2.23
2023-03-27T11:20:07.088Z,2.00
2023-03-27T11:22:42.921Z,1.73
2023-03-27T11:25:35.488Z,3.37
2023-03-27T11:28:32.500Z,2.10
2023-03-27T11:31:12.122Z,2.67
2023-03-27T11:33:59.964Z,1.83
2023-03-27T11:36:51.261Z,2.30
2023-03-27T11:39:36.331Z,1.90
2023-03-27T11:42:16.416Z,2.20
2023-03-27T11:44:43.576Z,1.90
2023-03-27T11:47:43.494Z,1.90
2023-03-27T11:50:35.428Z,1.87
2023-03-27T11:53:17.575Z,2.57
2023-03-27T11:56:17.320Z,3.00
2023-03-27T11:59:05.854Z,1.80
2023-03-27T12:01:32.968Z,1.70
2023-03-27T12:04:21.836Z,2.67
2023-03-27T12:07:09.812Z,2.60
2023-03-27T12:10:11.857Z,1.50
2023-03-27T12:12:53.414Z,1.80
2023-03-27T12:15:48.352Z,1.60
2023-03-27T12:18:54.445Z,2.20
2023-03-27T12:21:53.944Z,1.80
2023-03-27T12:24:57.164Z,1.50
2023-03-27T12:27:32.657Z,1.80
2023-03-27T12:30:23.292Z,2.03
2023-03-27T12:32:49.930Z,1.77
2023-03-27T12:35:24.359Z,2.30
2023-03-27T12:38:01.960Z,1.90
2023-03-27T12:40:37.536Z,1.60
2023-03-27T12:43:26.581Z,2.30
2023-03-27T12:46:23.288Z,2.07
2023-03-27T12:48:52.688Z,1.50
2023-03-27T12:51:20.234Z,1.97
2023-03-27T12:53:55.214Z,1.57
2023-03-27T12:56:34.739Z,1.90
2023-03-27T12:59:12.618Z,2.00
2023-03-27T13:01:51.696Z,1.80
2023-03-27T13:04:53.171Z,2.17
2023-03-27T13:07:53.518Z,1.90
2023-03-27T13:10:44.303Z,1.80
2023-03-27T13:13:51.078Z,1.80
2023-03-27T13:16:36.962Z,1.80
2023-03-27T13:19:28.223Z,1.67
2023-03-27T13:22:10.565Z,2.13
2023-03-27T13:25:07.790Z,2.22
2023-03-27T13:27:53.159Z,2.20
2023-03-27T13:30:47.023Z,2.27
2023-03-27T13:33:30.843Z,1.70
2023-03-27T13:35:57.491Z,2.30
2023-03-27T13:38:44.843Z,2.37
2023-03-27T13:41:43.835Z,2.10
2023-03-27T13:44:15.782Z,2.47
2023-03-27T13:46:48.190Z,2.20
2023-03-27T13:50:06.101Z,2.90
2023-03-27T13:53:02.355Z,2.40
2023-03-27T13:55:43.571Z,2.70
2023-03-27T13:58:45.862Z,2.40
2023-03-27T14:01:46.837Z,3.20
2023-03-27T14:05:04.600Z,2.85
2023-03-27T14:07:37.408Z,2.47
2023-03-27T14:10:34.463Z,3.20
2023-03-27T14:13:30.912Z,2.47
2023-03-27T14:16:22.441Z,2.40
2023-03-27T14:19:05.110Z,2.60
2023-03-27T14:22:02.254Z,2.50
2023-03-27T14:24:55.942Z,2.60
2023-03-27T14:27:23.579Z,2.33
2023-03-27T14:30:09.529Z,2.27
2023-03-27T14:32:36.198Z,2.20
2023-03-27T14:35:05.481Z,1.97
2023-03-27T14:37:36.026Z,2.88
2023-03-27T14:40:19.977Z,2.70
2023-03-27T14:42:48.117Z,2.77
2023-03-27T14:45:27.237Z,2.30
2023-03-27T14:48:02.701Z,2.50
2023-03-27T14:50:30.588Z,2.87
2023-03-27T14:52:58.642Z,2.57
2023-03-27T14:55:34.246Z,2.20
2023-03-27T14:58:10.882Z,2.57
2023-03-27T15:00:40.513Z,2.23
2023-03-27T15:03:16.348Z,1.97
2023-03-27T15:06:13.311Z,2.10
2023-03-27T15:08:46.369Z,2.00
2023-03-27T15:11:21.170Z,2.63
2023-03-27T15:13:48.374Z,2.40
2023-03-27T15:16:24.606Z,2.43
2023-03-27T15:19:09.602Z,1.97
2023-03-27T15:21:50.908Z,2.53
2023-03-27T15:24:39.660Z,2.00
2023-03-27T15:27:10.313Z,2.07
2023-03-27T15:29:40.566Z,2.00
2023-03-27T15:32:18.774Z,2.10
2023-03-27T15:34:58.045Z,2.10
2023-03-27T15:37:28.533Z,1.50
2023-03-27T15:40:32.887Z,1.27
2023-03-27T15:43:05.061Z,1.43
2023-03-27T15:46:07.102Z,2.87
2023-03-27T15:48:37.097Z,2.20
2023-03-27T15:51:30.006Z,2.20
2023-03-27T15:53:57.021Z,2.03
2023-03-27T15:56:27.205Z,2.40
2023-03-27T15:59:01.560Z,2.40
2023-03-27T16:01:52.543Z,2.43
2023-03-27T16:04:25.768Z,2.60
2023-03-27T16:07:03.656Z,2.70
2023-03-27T16:09:40.764Z,2.97
2023-03-27T16:12:11.434Z,2.20
2023-03-27T16:14:41.125Z,1.87
2023-03-27T16:17:20.490Z,1.67
2023-03-27T16:19:56.661Z,1.90
2023-03-27T16:22:31.780Z,1.93
2023-03-27T16:25:01.263Z,2.50
2023-03-27T16:27:33.173Z,1.70
2023-03-27T16:29:59.702Z,1.93
2023-03-27T16:32:26.330Z,2.00
2023-03-27T16:34:53.024Z,1.40
2023-03-27T16:37:24.963Z,1.30
2023-03-27T16:39:52.601Z,1.40
2023-03-27T16:42:25.242Z,1.30
2023-03-27T16:44:52.961Z,1.43
2023-03-27T16:47:20.367Z,1.50
2023-03-27T16:49:56.213Z,1.47
2023-03-27T16:52:27.241Z,1.80
2023-03-27T16:54:54.189Z,1.70
2023-03-27T16:57:21.095Z,1.53
2023-03-27T16:59:47.690Z,1.60
2023-03-27T17:02:14.271Z,1.90
2023-03-27T17:04:43.665Z,1.93
2023-03-27T17:07:10.734Z,2.00
2023-03-27T17:09:37.317Z,2.13
2023-03-27T17:12:04.295Z,2.17
2023-03-27T17:14:30.880Z,1.73
2023-03-27T17:16:57.441Z,2.17
2023-03-27T17:19:24.012Z,1.83
2023-03-27T17:21:50.605Z,2.20
2023-03-27T17:24:19.641Z,2.10
2023-03-27T17:26:46.386Z,2.10
2023-03-27T17:29:12.972Z,2.00
2023-03-27T17:31:39.719Z,2.20
2023-03-27T17:34:06.958Z,2.63
2023-03-27T17:36:42.749Z,2.47
2023-03-27T17:39:11.689Z,2.93
2023-03-27T17:41:38.322Z,2.53
2023-03-27T17:44:07.402Z,2.60
2023-03-27T17:46:34.371Z,3.80
2023-03-27T17:49:01.111Z,3.27
2023-03-27T17:51:27.635Z,3.00
2023-03-27T17:53:54.181Z,3.10
2023-03-27T17:56:20.774Z,3.53
2023-03-27T17:58:48.847Z,3.03
2023-03-27T18:01:20.313Z,3.37
2023-03-27T18:03:47.690Z,3.63
2023-03-27T18:06:17.330Z,4.23
2023-03-27T18:08:45.699Z,4.60
2023-03-27T18:11:14.280Z,5.03
2023-03-27T18:13:41.351Z,4.37
2023-03-27T18:16:10.645Z,4.10
2023-03-27T18:18:39.002Z,3.87
2023-03-27T18:21:06.296Z,4.32
2023-03-27T18:23:34.816Z,4.83
2023-03-27T18:26:06.249Z,4.07
2023-03-27T18:28:33.609Z,3.77
2023-03-27T18:31:03.571Z,4.83
2023-03-27T18:33:30.316Z,3.43
2023-03-27T18:35:57.704Z,3.63
2023-03-27T18:38:26.014Z,4.10
2023-03-27T18:40:55.438Z,3.63
2023-03-27T18:43:23.287Z,3.20
2023-03-27T18:45:57.799Z,3.13
2023-03-27T18:48:25.635Z,2.70
2023-03-27T18:51:03.909Z,2.50
2023-03-27T18:53:30.899Z,2.30
2023-03-27T18:56:01.353Z,2.27
2023-03-27T18:58:29.426Z,2.50
2023-03-27T19:00:56.683Z,2.85
2023-03-27T19:03:26.217Z,2.37
2023-03-27T19:05:53.308Z,2.50
2023-03-27T19:08:21.335Z,2.40
2023-03-27T19:10:48.094Z,2.40
2023-03-27T19:13:14.794Z,2.40
2023-03-27T19:15:41.944Z,2.10
2023-03-27T19:18:09.040Z,2.20
2023-03-27T19:20:35.895Z,2.10
2023-03-27T19:23:03.066Z,2.17
2023-03-27T19:25:29.971Z,1.90
2023-03-27T19:27:56.549Z,2.43
2023-03-27T19:30:23.434Z,2.60
2023-03-27T19:32:52.192Z,2.10
2023-03-27T19:35:19.965Z,2.50
2023-03-27T19:37:47.316Z,2.30
2023-03-27T19:40:14.087Z,1.97
2023-03-27T19:42:40.851Z,2.53
2023-03-27T19:45:08.622Z,2.03
2023-03-27T19:47:35.421Z,2.40
2023-03-27T19:50:02.172Z,2.10
2023-03-27T19:52:29.849Z,2.53
2023-03-27T19:54:56.368Z,2.63
2023-03-27T19:57:22.958Z,2.67
2023-03-27T19:59:50.260Z,2.40
2023-03-27T20:02:16.837Z,2.67
2023-03-27T20:04:43.645Z,2.60
2023-03-27T20:07:10.338Z,2.40
2023-03-27T20:09:37.415Z,2.40
2023-03-27T20:12:05.312Z,2.93
2023-03-27T20:14:31.872Z,3.60
2023-03-27T20:16:58.433Z,3.60
2023-03-27T20:19:30.475Z,3.90
2023-03-27T20:21:57.657Z,4.07
2023-03-27T20:24:24.719Z,3.43
2023-03-27T20:26:53.927Z,3.30
2023-03-27T20:29:22.726Z,3.43
2023-03-27T20:31:49.782Z,3.60
2023-03-27T20:34:19.072Z,3.10
2023-03-27T20:36:45.884Z,3.43
2023-03-27T20:39:14.089Z,3.40
2023-03-27T20:41:40.984Z,3.30
2023-03-27T20:44:17.836Z,2.73
2023-03-27T20:46:47.401Z,2.57
2023-03-27T20:49:37.618Z,2.10
2023-03-27T20:52:08.079Z,2.17
2023-03-27T20:54:34.784Z,2.53
2023-03-27T20:57:02.469Z,2.27
2023-03-27T20:59:30.439Z,2.50
2023-03-27T21:01:57.666Z,2.43
2023-03-27T21:04:25.971Z,2.50
2023-03-27T21:06:54.800Z,2.80
2023-03-27T21:09:26.315Z,2.30
2023-03-27T21:11:54.778Z,2.10
2023-03-27T21:14:21.595Z,2.37
2023-03-27T21:16:48.252Z,2.40
2023-03-27T21:19:14.780Z,2.63
2023-03-27T21:21:41.326Z,2.40
2023-03-27T21:24:08.017Z,2.70
2023-03-27T21:26:35.209Z,2.83
2023-03-27T21:29:03.219Z,3.30
2023-03-27T21:31:29.891Z,2.70
2023-03-27T21:33:56.538Z,2.70
2023-03-27T21:36:23.252Z,2.17
2023-03-27T21:38:50.379Z,2.40
2023-03-27T21:41:17.485Z,2.30
2023-03-27T21:43:44.378Z,2.43
2023-03-27T21:46:11.508Z,2.30
2023-03-27T21:48:40.643Z,2.13
2023-03-27T21:51:08.760Z,2.20
2023-03-27T21:53:36.091Z,2.97
2023-03-27T21:56:03.112Z,2.60
2023-03-27T21:58:30.286Z,2.73
2023-03-27T22:00:57.762Z,2.70
2023-03-27T22:03:25.568Z,3.00
2023-03-27T22:06:07.650Z,2.77
2023-03-27T22:08:36.603Z,2.90
2023-03-27T22:11:03.647Z,2.43
2023-03-27T22:13:30.740Z,2.90
2023-03-27T22:15:58.107Z,2.70
2023-03-27T22:18:25.496Z,2.70
2023-03-27T22:20:52.525Z,3.00
2023-03-27T22:23:19.520Z,3.40
2023-03-27T22:25:53.449Z,2.83
2023-03-27T22:28:20.651Z,2.93
2023-03-27T22:30:47.876Z,2.70
2023-03-27T22:33:15.276Z,2.90
2023-03-27T22:35:47.679Z,2.87
2023-03-27T22:38:14.893Z,2.70
2023-03-27T22:40:41.886Z,2.83
2023-03-27T22:43:08.896Z,3.80
2023-03-27T22:45:36.281Z,4.03
2023-03-27T22:48:05.455Z,3.07
2023-03-27T22:50:32.571Z,3.00
2023-03-27T22:52:59.657Z,2.80
2023-03-27T22:55:26.905Z,2.60
2023-03-27T22:57:54.191Z,2.70
2023-03-27T23:00:21.428Z,2.93
2023-03-27T23:02:48.525Z,2.70
2023-03-27T23:05:15.971Z,2.47
2023-03-27T23:07:42.985Z,2.77
2023-03-27T23:10:10.208Z,3.20
2023-03-27T23:12:37.207Z,2.67
2023-03-27T23:15:04.327Z,2.80
2023-03-27T23:17:31.352Z,2.90
2023-03-27T23:19:58.352Z,2.90
2023-03-27T23:22:25.708Z,2.60
2023-03-27T23:24:52.764Z,2.60
2023-03-27T23:27:19.717Z,2.63
2023-03-27T23:29:47.888Z,2.70
2023-03-27T23:32:14.841Z,2.50
2023-03-27T23:34:41.976Z,2.70
2023-03-27T23:37:08.932Z,3.00
2023-03-27T23:39:35.916Z,3.47
2023-03-27T23:42:02.890Z,2.90
2023-03-27T23:44:29.904Z,2.80
2023-03-27T23:46:56.975Z,3.10
2023-03-27T23:49:24.005Z,2.37
2023-03-27T23:51:51.049Z,2.60
2023-03-27T23:54:18.029Z,2.57
2023-03-27T23:56:45.075Z,2.63
2023-03-27T23:59:12.218Z,2.60
